sensor_id;sensor_type;location;lat;lon;timestamp;P1;durP1;ratioP1;P2;durP2;ratioP2
29500;SDS011;16450;50.288;10.966;2023-08-12T00:01:09;5.73;;;3.87;;
29500;SDS011;16450;50.288;10.966;2023-08-12T00:04:11;4.10;;;3.67;;
29500;SDS011;16450;50.288;10.966;2023-08-12T00:07:15;4.53;;;3.67;;
29500;SDS011;16450;50.288;10.966;2023-08-12T00:10:17;5.23;;;3.80;;
29500;SDS011;16450;50.288;10.966;2023-08-12T00:13:19;5.43;;;3.60;;
29500;SDS011;16450;50.288;10.966;2023-08-12T00:16:22;4.47;;;3.70;;
29500;SDS011;16450;50.288;10.966;2023-08-12T00:19:24;5.27;;;3.67;;
29500;SDS011;16450;50.288;10.966;2023-08-12T00:22:26;4.43;;;3.70;;
29500;SDS011;16450;50.288;10.966;2023-08-12T00:25:28;5.30;;;3.70;;
29500;SDS011;16450;50.288;10.966;2023-08-12T00:28:30;5.83;;;3.83;;
29500;SDS011;16450;50.288;10.966;2023-08-12T00:31:32;4.33;;;3.47;;
29500;SDS011;16450;50.288;10.966;2023-08-12T00:34:34;4.30;;;3.40;;
29500;SDS011;16450;50.288;10.966;2023-08-12T00:37:35;4.10;;;3.27;;
29500;SDS011;16450;50.288;10.966;2023-08-12T00:40:37;5.10;;;3.50;;
29500;SDS011;16450;50.288;10.966;2023-08-12T00:43:39;5.87;;;3.93;;
29500;SDS011;16450;50.288;10.966;2023-08-12T00:46:42;4.80;;;3.37;;
29500;SDS011;16450;50.288;10.966;2023-08-12T00:49:44;5.57;;;3.80;;
29500;SDS011;16450;50.288;10.966;2023-08-12T00:52:47;5.03;;;3.60;;
29500;SDS011;16450;50.288;10.966;2023-08-12T00:55:50;4.43;;;3.33;;
29500;SDS011;16450;50.288;10.966;2023-08-12T00:58:52;6.23;;;3.43;;
29500;SDS011;16450;50.288;10.966;2023-08-12T01:01:55;6.80;;;3.70;;
29500;SDS011;16450;50.288;10.966;2023-08-12T01:04:58;6.10;;;4.13;;
29500;SDS011;16450;50.288;10.966;2023-08-12T01:07:59;6.70;;;3.90;;
29500;SDS011;16450;50.288;10.966;2023-08-12T01:11:03;4.30;;;3.43;;
29500;SDS011;16450;50.288;10.966;2023-08-12T01:14:28;5.47;;;3.80;;
29500;SDS011;16450;50.288;10.966;2023-08-12T01:17:38;5.13;;;3.80;;
29500;SDS011;16450;50.288;10.966;2023-08-12T01:20:43;4.93;;;3.67;;
29500;SDS011;16450;50.288;10.966;2023-08-12T01:23:45;5.40;;;3.73;;
29500;SDS011;16450;50.288;10.966;2023-08-12T01:26:47;3.53;;;3.23;;
29500;SDS011;16450;50.288;10.966;2023-08-12T01:29:51;5.57;;;3.90;;
29500;SDS011;16450;50.288;10.966;2023-08-12T01:33:55;4.97;;;3.27;;
29500;SDS011;16450;50.288;10.966;2023-08-12T01:36:40;4.50;;;3.70;;
29500;SDS011;16450;50.288;10.966;2023-08-12T01:39:47;6.20;;;3.30;;
29500;SDS011;16450;50.288;10.966;2023-08-12T01:42:50;4.97;;;3.47;;
29500;SDS011;16450;50.288;10.966;2023-08-12T01:45:53;4.87;;;3.23;;
29500;SDS011;16450;50.288;10.966;2023-08-12T01:48:55;4.73;;;3.13;;
29500;SDS011;16450;50.288;10.966;2023-08-12T01:51:57;4.57;;;3.43;;
29500;SDS011;16450;50.288;10.966;2023-08-12T01:54:59;4.60;;;3.47;;
29500;SDS011;16450;50.288;10.966;2023-08-12T01:58:01;4.27;;;3.70;;
29500;SDS011;16450;50.288;10.966;2023-08-12T02:01:02;5.23;;;3.77;;
29500;SDS011;16450;50.288;10.966;2023-08-12T02:04:04;5.73;;;3.40;;
29500;SDS011;16450;50.288;10.966;2023-08-12T02:07:06;4.63;;;3.40;;
29500;SDS011;16450;50.288;10.966;2023-08-12T02:10:08;5.40;;;3.53;;
29500;SDS011;16450;50.288;10.966;2023-08-12T02:13:11;4.90;;;3.77;;
29500;SDS011;16450;50.288;10.966;2023-08-12T02:16:12;4.33;;;3.53;;
29500;SDS011;16450;50.288;10.966;2023-08-12T02:19:14;6.57;;;3.43;;
29500;SDS011;16450;50.288;10.966;2023-08-12T02:22:16;3.67;;;3.10;;
29500;SDS011;16450;50.288;10.966;2023-08-12T02:25:18;4.73;;;3.80;;
29500;SDS011;16450;50.288;10.966;2023-08-12T02:28:20;5.33;;;3.20;;
29500;SDS011;16450;50.288;10.966;2023-08-12T02:31:22;5.23;;;3.53;;
29500;SDS011;16450;50.288;10.966;2023-08-12T02:34:23;4.40;;;3.40;;
29500;SDS011;16450;50.288;10.966;2023-08-12T02:37:25;4.70;;;3.30;;
29500;SDS011;16450;50.288;10.966;2023-08-12T02:40:27;4.60;;;3.50;;
29500;SDS011;16450;50.288;10.966;2023-08-12T02:43:29;5.73;;;3.40;;
29500;SDS011;16450;50.288;10.966;2023-08-12T02:46:31;3.87;;;3.43;;
29500;SDS011;16450;50.288;10.966;2023-08-12T02:49:33;4.17;;;3.53;;
29500;SDS011;16450;50.288;10.966;2023-08-12T02:52:35;4.50;;;3.40;;
29500;SDS011;16450;50.288;10.966;2023-08-12T02:55:36;5.43;;;3.60;;
29500;SDS011;16450;50.288;10.966;2023-08-12T02:58:39;5.90;;;3.80;;
29500;SDS011;16450;50.288;10.966;2023-08-12T03:01:41;3.70;;;3.40;;
29500;SDS011;16450;50.288;10.966;2023-08-12T03:04:44;4.80;;;3.37;;
29500;SDS011;16450;50.288;10.966;2023-08-12T03:07:45;5.50;;;3.60;;
29500;SDS011;16450;50.288;10.966;2023-08-12T03:10:47;3.67;;;3.10;;
29500;SDS011;16450;50.288;10.966;2023-08-12T03:13:49;5.47;;;3.50;;
29500;SDS011;16450;50.288;10.966;2023-08-12T03:16:51;5.10;;;3.33;;
29500;SDS011;16450;50.288;10.966;2023-08-12T03:19:53;5.00;;;3.33;;
29500;SDS011;16450;50.288;10.966;2023-08-12T03:22:58;3.93;;;3.40;;
29500;SDS011;16450;50.288;10.966;2023-08-12T03:26:00;7.23;;;3.73;;
29500;SDS011;16450;50.288;10.966;2023-08-12T03:29:03;4.90;;;3.20;;
29500;SDS011;16450;50.288;10.966;2023-08-12T03:32:05;5.27;;;3.90;;
29500;SDS011;16450;50.288;10.966;2023-08-12T03:35:07;5.53;;;3.73;;
29500;SDS011;16450;50.288;10.966;2023-08-12T03:38:10;4.60;;;3.40;;
29500;SDS011;16450;50.288;10.966;2023-08-12T03:41:12;5.77;;;3.70;;
29500;SDS011;16450;50.288;10.966;2023-08-12T03:44:14;4.80;;;3.47;;
29500;SDS011;16450;50.288;10.966;2023-08-12T03:47:17;5.87;;;3.60;;
29500;SDS011;16450;50.288;10.966;2023-08-12T03:50:23;4.30;;;3.67;;
29500;SDS011;16450;50.288;10.966;2023-08-12T03:53:25;6.00;;;3.90;;
29500;SDS011;16450;50.288;10.966;2023-08-12T03:56:27;4.07;;;3.47;;
29500;SDS011;16450;50.288;10.966;2023-08-12T03:59:29;6.80;;;4.00;;
29500;SDS011;16450;50.288;10.966;2023-08-12T04:02:31;7.10;;;3.60;;
29500;SDS011;16450;50.288;10.966;2023-08-12T04:05:34;5.37;;;3.67;;
29500;SDS011;16450;50.288;10.966;2023-08-12T04:08:35;4.37;;;3.90;;
29500;SDS011;16450;50.288;10.966;2023-08-12T04:11:37;5.50;;;3.90;;
29500;SDS011;16450;50.288;10.966;2023-08-12T04:14:39;4.97;;;3.83;;
29500;SDS011;16450;50.288;10.966;2023-08-12T04:17:42;5.43;;;3.50;;
29500;SDS011;16450;50.288;10.966;2023-08-12T04:20:50;4.67;;;3.40;;
29500;SDS011;16450;50.288;10.966;2023-08-12T04:23:53;4.90;;;3.63;;
29500;SDS011;16450;50.288;10.966;2023-08-12T04:26:55;5.30;;;3.60;;
29500;SDS011;16450;50.288;10.966;2023-08-12T04:29:57;4.00;;;3.60;;
29500;SDS011;16450;50.288;10.966;2023-08-12T04:32:59;4.43;;;3.70;;
29500;SDS011;16450;50.288;10.966;2023-08-12T04:36:01;10.37;;;4.10;;
29500;SDS011;16450;50.288;10.966;2023-08-12T04:39:03;5.60;;;3.50;;
29500;SDS011;16450;50.288;10.966;2023-08-12T04:42:06;5.70;;;3.97;;
29500;SDS011;16450;50.288;10.966;2023-08-12T04:45:07;6.00;;;3.70;;
29500;SDS011;16450;50.288;10.966;2023-08-12T04:48:10;5.03;;;4.00;;
29500;SDS011;16450;50.288;10.966;2023-08-12T04:51:12;3.70;;;3.40;;
29500;SDS011;16450;50.288;10.966;2023-08-12T04:54:15;5.13;;;3.80;;
29500;SDS011;16450;50.288;10.966;2023-08-12T04:57:17;4.67;;;3.60;;
29500;SDS011;16450;50.288;10.966;2023-08-12T05:00:19;5.60;;;3.60;;
29500;SDS011;16450;50.288;10.966;2023-08-12T05:03:21;4.90;;;3.73;;
29500;SDS011;16450;50.288;10.966;2023-08-12T05:06:24;8.90;;;3.60;;
29500;SDS011;16450;50.288;10.966;2023-08-12T05:09:26;4.83;;;3.90;;
29500;SDS011;16450;50.288;10.966;2023-08-12T05:12:28;5.97;;;4.00;;
29500;SDS011;16450;50.288;10.966;2023-08-12T05:15:30;6.20;;;3.80;;
29500;SDS011;16450;50.288;10.966;2023-08-12T05:18:31;5.77;;;3.87;;
29500;SDS011;16450;50.288;10.966;2023-08-12T05:21:33;4.83;;;3.57;;
29500;SDS011;16450;50.288;10.966;2023-08-12T05:24:35;5.77;;;4.00;;
29500;SDS011;16450;50.288;10.966;2023-08-12T05:27:37;4.37;;;3.80;;
29500;SDS011;16450;50.288;10.966;2023-08-12T05:30:40;4.20;;;3.73;;
29500;SDS011;16450;50.288;10.966;2023-08-12T05:33:42;5.50;;;4.13;;
29500;SDS011;16450;50.288;10.966;2023-08-12T05:36:44;4.47;;;3.87;;
29500;SDS011;16450;50.288;10.966;2023-08-12T05:39:45;4.97;;;3.77;;
29500;SDS011;16450;50.288;10.966;2023-08-12T05:42:48;5.57;;;3.77;;
29500;SDS011;16450;50.288;10.966;2023-08-12T05:45:50;5.40;;;3.90;;
29500;SDS011;16450;50.288;10.966;2023-08-12T05:48:52;5.27;;;3.93;;
29500;SDS011;16450;50.288;10.966;2023-08-12T05:51:54;4.03;;;3.63;;
29500;SDS011;16450;50.288;10.966;2023-08-12T05:54:56;5.70;;;3.57;;
29500;SDS011;16450;50.288;10.966;2023-08-12T05:57:58;4.47;;;3.93;;
29500;SDS011;16450;50.288;10.966;2023-08-12T06:01:00;5.37;;;3.90;;
29500;SDS011;16450;50.288;10.966;2023-08-12T06:04:02;5.17;;;3.73;;
29500;SDS011;16450;50.288;10.966;2023-08-12T06:07:04;5.90;;;3.70;;
29500;SDS011;16450;50.288;10.966;2023-08-12T06:10:06;6.63;;;3.50;;
29500;SDS011;16450;50.288;10.966;2023-08-12T06:13:08;4.20;;;3.47;;
29500;SDS011;16450;50.288;10.966;2023-08-12T06:16:10;6.23;;;3.77;;
29500;SDS011;16450;50.288;10.966;2023-08-12T06:19:12;3.97;;;3.50;;
29500;SDS011;16450;50.288;10.966;2023-08-12T06:22:14;4.47;;;3.73;;
29500;SDS011;16450;50.288;10.966;2023-08-12T06:25:17;4.47;;;4.00;;
29500;SDS011;16450;50.288;10.966;2023-08-12T06:28:21;5.73;;;3.80;;
29500;SDS011;16450;50.288;10.966;2023-08-12T06:31:22;5.23;;;3.77;;
29500;SDS011;16450;50.288;10.966;2023-08-12T06:34:25;5.00;;;4.23;;
29500;SDS011;16450;50.288;10.966;2023-08-12T06:37:29;5.17;;;3.63;;
29500;SDS011;16450;50.288;10.966;2023-08-12T06:40:31;4.60;;;3.63;;
29500;SDS011;16450;50.288;10.966;2023-08-12T06:43:33;6.43;;;4.00;;
29500;SDS011;16450;50.288;10.966;2023-08-12T06:46:36;5.00;;;3.60;;
29500;SDS011;16450;50.288;10.966;2023-08-12T06:49:38;5.50;;;4.03;;
29500;SDS011;16450;50.288;10.966;2023-08-12T06:52:40;7.40;;;4.23;;
29500;SDS011;16450;50.288;10.966;2023-08-12T06:55:44;5.87;;;4.50;;
29500;SDS011;16450;50.288;10.966;2023-08-12T06:58:47;5.53;;;3.67;;
29500;SDS011;16450;50.288;10.966;2023-08-12T07:01:49;4.97;;;3.80;;
29500;SDS011;16450;50.288;10.966;2023-08-12T07:04:51;4.47;;;3.63;;
29500;SDS011;16450;50.288;10.966;2023-08-12T07:07:54;5.33;;;3.70;;
29500;SDS011;16450;50.288;10.966;2023-08-12T07:10:56;4.87;;;3.50;;
29500;SDS011;16450;50.288;10.966;2023-08-12T07:13:58;10.23;;;3.77;;
29500;SDS011;16450;50.288;10.966;2023-08-12T07:17:00;5.70;;;3.67;;
29500;SDS011;16450;50.288;10.966;2023-08-12T07:20:02;3.80;;;3.40;;
29500;SDS011;16450;50.288;10.966;2023-08-12T07:23:05;4.70;;;3.80;;
29500;SDS011;16450;50.288;10.966;2023-08-12T07:26:07;4.68;;;3.85;;
29500;SDS011;16450;50.288;10.966;2023-08-12T07:29:09;3.90;;;3.40;;
29500;SDS011;16450;50.288;10.966;2023-08-12T07:32:11;4.60;;;3.60;;
29500;SDS011;16450;50.288;10.966;2023-08-12T07:35:15;5.00;;;3.60;;
29500;SDS011;16450;50.288;10.966;2023-08-12T07:38:17;3.70;;;3.30;;
29500;SDS011;16450;50.288;10.966;2023-08-12T07:41:19;4.20;;;3.65;;
29500;SDS011;16450;50.288;10.966;2023-08-12T07:44:21;3.97;;;3.58;;
29500;SDS011;16450;50.288;10.966;2023-08-12T07:47:23;5.30;;;4.00;;
29500;SDS011;16450;50.288;10.966;2023-08-12T07:50:25;6.53;;;3.80;;
29500;SDS011;16450;50.288;10.966;2023-08-12T07:53:27;5.03;;;3.30;;
29500;SDS011;16450;50.288;10.966;2023-08-12T07:56:29;4.38;;;3.70;;
29500;SDS011;16450;50.288;10.966;2023-08-12T07:59:31;4.28;;;3.40;;
29500;SDS011;16450;50.288;10.966;2023-08-12T08:02:32;3.50;;;3.20;;
29500;SDS011;16450;50.288;10.966;2023-08-12T08:05:35;3.55;;;3.17;;
29500;SDS011;16450;50.288;10.966;2023-08-12T08:08:37;4.82;;;3.42;;
29500;SDS011;16450;50.288;10.966;2023-08-12T08:11:39;4.07;;;3.33;;
29500;SDS011;16450;50.288;10.966;2023-08-12T08:14:40;4.93;;;3.25;;
29500;SDS011;16450;50.288;10.966;2023-08-12T08:17:42;3.72;;;3.10;;
29500;SDS011;16450;50.288;10.966;2023-08-12T08:20:44;3.60;;;3.30;;
29500;SDS011;16450;50.288;10.966;2023-08-12T08:23:47;4.78;;;3.88;;
29500;SDS011;16450;50.288;10.966;2023-08-12T08:26:49;4.22;;;3.17;;
29500;SDS011;16450;50.288;10.966;2023-08-12T08:29:51;4.32;;;3.67;;
29500;SDS011;16450;50.288;10.966;2023-08-12T08:32:53;3.83;;;3.40;;
29500;SDS011;16450;50.288;10.966;2023-08-12T08:35:55;5.10;;;3.67;;
29500;SDS011;16450;50.288;10.966;2023-08-12T08:38:58;6.40;;;3.40;;
29500;SDS011;16450;50.288;10.966;2023-08-12T08:42:02;5.18;;;3.55;;
29500;SDS011;16450;50.288;10.966;2023-08-12T08:45:07;4.05;;;3.58;;
29500;SDS011;16450;50.288;10.966;2023-08-12T08:48:13;5.30;;;3.33;;
29500;SDS011;16450;50.288;10.966;2023-08-12T08:51:17;3.95;;;3.58;;
29500;SDS011;16450;50.288;10.966;2023-08-12T08:54:24;4.20;;;3.40;;
29500;SDS011;16450;50.288;10.966;2023-08-12T08:57:26;4.32;;;3.30;;
29500;SDS011;16450;50.288;10.966;2023-08-12T09:00:46;4.22;;;3.33;;
29500;SDS011;16450;50.288;10.966;2023-08-12T09:03:49;4.55;;;3.35;;
29500;SDS011;16450;50.288;10.966;2023-08-12T09:06:54;5.80;;;3.67;;
29500;SDS011;16450;50.288;10.966;2023-08-12T09:09:56;3.55;;;3.20;;
29500;SDS011;16450;50.288;10.966;2023-08-12T09:13:02;3.53;;;3.22;;
29500;SDS011;16450;50.288;10.966;2023-08-12T09:16:04;5.10;;;3.85;;
29500;SDS011;16450;50.288;10.966;2023-08-12T09:19:06;3.88;;;3.35;;
29500;SDS011;16450;50.288;10.966;2023-08-12T09:22:08;4.78;;;3.60;;
29500;SDS011;16450;50.288;10.966;2023-08-12T09:25:11;3.72;;;3.13;;
29500;SDS011;16450;50.288;10.966;2023-08-12T09:28:14;6.88;;;3.53;;
29500;SDS011;16450;50.288;10.966;2023-08-12T09:31:23;5.72;;;3.47;;
29500;SDS011;16450;50.288;10.966;2023-08-12T09:34:29;33.72;;;4.78;;
29500;SDS011;16450;50.288;10.966;2023-08-12T09:37:31;4.95;;;3.42;;
29500;SDS011;16450;50.288;10.966;2023-08-12T09:40:34;3.42;;;3.13;;
29500;SDS011;16450;50.288;10.966;2023-08-12T09:43:40;5.72;;;3.22;;
29500;SDS011;16450;50.288;10.966;2023-08-12T09:46:44;4.63;;;3.03;;
29500;SDS011;16450;50.288;10.966;2023-08-12T09:49:46;4.03;;;3.45;;
29500;SDS011;16450;50.288;10.966;2023-08-12T09:52:48;4.13;;;3.33;;
29500;SDS011;16450;50.288;10.966;2023-08-12T09:55:50;5.45;;;2.55;;
29500;SDS011;16450;50.288;10.966;2023-08-12T09:58:54;4.13;;;3.08;;
29500;SDS011;16450;50.288;10.966;2023-08-12T10:01:57;7.68;;;3.40;;
29500;SDS011;16450;50.288;10.966;2023-08-12T10:05:00;3.22;;;2.92;;
29500;SDS011;16450;50.288;10.966;2023-08-12T10:08:03;4.30;;;3.05;;
29500;SDS011;16450;50.288;10.966;2023-08-12T10:11:06;3.80;;;2.88;;
29500;SDS011;16450;50.288;10.966;2023-08-12T10:14:13;5.32;;;3.35;;
29500;SDS011;16450;50.288;10.966;2023-08-12T10:17:15;2.97;;;2.58;;
29500;SDS011;16450;50.288;10.966;2023-08-12T10:20:37;3.67;;;2.75;;
29500;SDS011;16450;50.288;10.966;2023-08-12T10:23:41;3.67;;;2.90;;
29500;SDS011;16450;50.288;10.966;2023-08-12T10:26:47;4.32;;;2.60;;
29500;SDS011;16450;50.288;10.966;2023-08-12T10:29:50;4.38;;;2.80;;
29500;SDS011;16450;50.288;10.966;2023-08-12T10:32:52;4.97;;;2.70;;
29500;SDS011;16450;50.288;10.966;2023-08-12T10:35:54;3.03;;;2.75;;
29500;SDS011;16450;50.288;10.966;2023-08-12T10:38:57;3.35;;;2.95;;
29500;SDS011;16450;50.288;10.966;2023-08-12T10:41:59;2.92;;;2.47;;
29500;SDS011;16450;50.288;10.966;2023-08-12T10:45:03;4.75;;;3.00;;
29500;SDS011;16450;50.288;10.966;2023-08-12T10:51:10;3.15;;;2.70;;
29500;SDS011;16450;50.288;10.966;2023-08-12T10:54:16;3.22;;;2.78;;
29500;SDS011;16450;50.288;10.966;2023-08-12T10:57:19;4.00;;;2.78;;
29500;SDS011;16450;50.288;10.966;2023-08-12T11:00:39;3.75;;;3.03;;
29500;SDS011;16450;50.288;10.966;2023-08-12T11:03:43;3.03;;;2.72;;
29500;SDS011;16450;50.288;10.966;2023-08-12T11:06:46;2.85;;;2.60;;
29500;SDS011;16450;50.288;10.966;2023-08-12T11:09:51;3.03;;;2.72;;
29500;SDS011;16450;50.288;10.966;2023-08-12T11:12:57;3.08;;;2.72;;
29500;SDS011;16450;50.288;10.966;2023-08-12T11:16:06;4.15;;;2.83;;
29500;SDS011;16450;50.288;10.966;2023-08-12T11:19:10;4.38;;;3.03;;
29500;SDS011;16450;50.288;10.966;2023-08-12T11:22:12;3.40;;;3.10;;
29500;SDS011;16450;50.288;10.966;2023-08-12T11:25:16;3.85;;;3.10;;
29500;SDS011;16450;50.288;10.966;2023-08-12T11:28:21;5.55;;;3.20;;
29500;SDS011;16450;50.288;10.966;2023-08-12T11:31:25;4.05;;;2.97;;
29500;SDS011;16450;50.288;10.966;2023-08-12T11:34:28;4.47;;;3.00;;
29500;SDS011;16450;50.288;10.966;2023-08-12T11:37:32;4.43;;;3.25;;
29500;SDS011;16450;50.288;10.966;2023-08-12T11:40:34;4.35;;;3.40;;
29500;SDS011;16450;50.288;10.966;2023-08-12T11:43:36;4.15;;;2.78;;
29500;SDS011;16450;50.288;10.966;2023-08-12T11:46:38;3.10;;;2.80;;
29500;SDS011;16450;50.288;10.966;2023-08-12T11:49:40;4.25;;;2.90;;
29500;SDS011;16450;50.288;10.966;2023-08-12T11:52:42;3.92;;;2.90;;
29500;SDS011;16450;50.288;10.966;2023-08-12T11:55:44;3.70;;;3.00;;
29500;SDS011;16450;50.288;10.966;2023-08-12T11:58:49;3.65;;;3.13;;
29500;SDS011;16450;50.288;10.966;2023-08-12T12:01:54;3.88;;;2.67;;
29500;SDS011;16450;50.288;10.966;2023-08-12T12:04:56;4.90;;;3.10;;
29500;SDS011;16450;50.288;10.966;2023-08-12T12:07:58;4.07;;;3.30;;
29500;SDS011;16450;50.288;10.966;2023-08-12T12:11:04;4.30;;;3.10;;
29500;SDS011;16450;50.288;10.966;2023-08-12T12:14:07;5.45;;;2.78;;
29500;SDS011;16450;50.288;10.966;2023-08-12T12:17:10;3.70;;;2.90;;
29500;SDS011;16450;50.288;10.966;2023-08-12T12:20:14;3.75;;;3.03;;
29500;SDS011;16450;50.288;10.966;2023-08-12T12:23:16;4.70;;;3.30;;
29500;SDS011;16450;50.288;10.966;2023-08-12T12:26:18;3.63;;;3.10;;
29500;SDS011;16450;50.288;10.966;2023-08-12T12:29:20;6.07;;;3.13;;
29500;SDS011;16450;50.288;10.966;2023-08-12T12:32:22;4.60;;;2.92;;
29500;SDS011;16450;50.288;10.966;2023-08-12T12:35:24;3.38;;;2.78;;
29500;SDS011;16450;50.288;10.966;2023-08-12T12:38:26;3.83;;;2.65;;
29500;SDS011;16450;50.288;10.966;2023-08-12T12:41:28;3.60;;;3.00;;
29500;SDS011;16450;50.288;10.966;2023-08-12T12:44:30;3.88;;;2.72;;
29500;SDS011;16450;50.288;10.966;2023-08-12T12:47:32;5.80;;;2.97;;
29500;SDS011;16450;50.288;10.966;2023-08-12T12:50:34;4.22;;;2.97;;
29500;SDS011;16450;50.288;10.966;2023-08-12T12:53:36;6.95;;;2.90;;
29500;SDS011;16450;50.288;10.966;2023-08-12T12:56:38;3.58;;;2.67;;
29500;SDS011;16450;50.288;10.966;2023-08-12T12:59:40;4.57;;;3.10;;
29500;SDS011;16450;50.288;10.966;2023-08-12T13:02:42;5.25;;;3.08;;
29500;SDS011;16450;50.288;10.966;2023-08-12T13:05:44;5.00;;;2.80;;
29500;SDS011;16450;50.288;10.966;2023-08-12T13:08:47;5.78;;;3.15;;
29500;SDS011;16450;50.288;10.966;2023-08-12T13:11:49;3.50;;;3.05;;
29500;SDS011;16450;50.288;10.966;2023-08-12T13:14:52;3.60;;;2.75;;
29500;SDS011;16450;50.288;10.966;2023-08-12T13:17:54;3.28;;;2.97;;
29500;SDS011;16450;50.288;10.966;2023-08-12T13:20:56;4.28;;;2.95;;
29500;SDS011;16450;50.288;10.966;2023-08-12T13:23:58;7.63;;;3.10;;
29500;SDS011;16450;50.288;10.966;2023-08-12T13:27:00;4.35;;;2.10;;
29500;SDS011;16450;50.288;10.966;2023-08-12T13:30:02;7.40;;;1.88;;
29500;SDS011;16450;50.288;10.966;2023-08-12T13:33:05;5.85;;;1.25;;
29500;SDS011;16450;50.288;10.966;2023-08-12T13:36:07;4.00;;;1.48;;
29500;SDS011;16450;50.288;10.966;2023-08-12T13:39:09;4.20;;;1.48;;
29500;SDS011;16450;50.288;10.966;2023-08-12T13:42:11;4.20;;;1.10;;
29500;SDS011;16450;50.288;10.966;2023-08-12T13:45:14;2.75;;;1.13;;
29500;SDS011;16450;50.288;10.966;2023-08-12T13:48:16;2.30;;;1.17;;
29500;SDS011;16450;50.288;10.966;2023-08-12T13:51:18;2.47;;;0.88;;
29500;SDS011;16450;50.288;10.966;2023-08-12T13:54:20;1.67;;;0.60;;
29500;SDS011;16450;50.288;10.966;2023-08-12T13:57:22;2.75;;;1.00;;
29500;SDS011;16450;50.288;10.966;2023-08-12T14:00:23;1.90;;;0.90;;
29500;SDS011;16450;50.288;10.966;2023-08-12T14:03:26;1.93;;;0.97;;
29500;SDS011;16450;50.288;10.966;2023-08-12T14:06:28;1.73;;;0.97;;
29500;SDS011;16450;50.288;10.966;2023-08-12T14:09:30;1.30;;;0.70;;
29500;SDS011;16450;50.288;10.966;2023-08-12T14:12:32;1.87;;;0.83;;
29500;SDS011;16450;50.288;10.966;2023-08-12T14:15:34;1.43;;;0.60;;
29500;SDS011;16450;50.288;10.966;2023-08-12T14:18:36;4.83;;;1.20;;
29500;SDS011;16450;50.288;10.966;2023-08-12T14:21:38;2.90;;;0.90;;
29500;SDS011;16450;50.288;10.966;2023-08-12T14:24:40;5.73;;;1.93;;
29500;SDS011;16450;50.288;10.966;2023-08-12T14:27:42;3.53;;;1.37;;
29500;SDS011;16450;50.288;10.966;2023-08-12T14:30:44;4.13;;;1.00;;
29500;SDS011;16450;50.288;10.966;2023-08-12T14:33:46;1.87;;;1.00;;
29500;SDS011;16450;50.288;10.966;2023-08-12T14:36:48;2.83;;;1.10;;
29500;SDS011;16450;50.288;10.966;2023-08-12T14:39:49;3.33;;;1.07;;
29500;SDS011;16450;50.288;10.966;2023-08-12T14:42:51;2.83;;;1.10;;
29500;SDS011;16450;50.288;10.966;2023-08-12T14:45:53;2.83;;;1.10;;
29500;SDS011;16450;50.288;10.966;2023-08-12T14:48:55;3.07;;;0.90;;
29500;SDS011;16450;50.288;10.966;2023-08-12T14:51:58;2.00;;;1.17;;
29500;SDS011;16450;50.288;10.966;2023-08-12T14:54:59;4.17;;;1.10;;
29500;SDS011;16450;50.288;10.966;2023-08-12T14:58:02;1.40;;;0.80;;
29500;SDS011;16450;50.288;10.966;2023-08-12T15:01:04;4.20;;;0.80;;
29500;SDS011;16450;50.288;10.966;2023-08-12T15:04:07;1.70;;;0.90;;
29500;SDS011;16450;50.288;10.966;2023-08-12T15:07:09;1.70;;;0.73;;
29500;SDS011;16450;50.288;10.966;2023-08-12T15:10:11;2.05;;;0.82;;
29500;SDS011;16450;50.288;10.966;2023-08-12T15:13:13;3.50;;;1.70;;
29500;SDS011;16450;50.288;10.966;2023-08-12T15:16:15;3.15;;;1.30;;
29500;SDS011;16450;50.288;10.966;2023-08-12T15:19:18;2.85;;;0.90;;
29500;SDS011;16450;50.288;10.966;2023-08-12T15:22:20;1.30;;;1.02;;
29500;SDS011;16450;50.288;10.966;2023-08-12T15:25:21;2.90;;;0.90;;
29500;SDS011;16450;50.288;10.966;2023-08-12T15:28:24;2.22;;;0.88;;
29500;SDS011;16450;50.288;10.966;2023-08-12T15:31:25;2.10;;;0.82;;
29500;SDS011;16450;50.288;10.966;2023-08-12T15:34:27;1.20;;;0.75;;
29500;SDS011;16450;50.288;10.966;2023-08-12T15:37:29;1.25;;;0.80;;
29500;SDS011;16450;50.288;10.966;2023-08-12T15:40:31;1.85;;;0.98;;
29500;SDS011;16450;50.288;10.966;2023-08-12T15:43:33;1.83;;;0.90;;
29500;SDS011;16450;50.288;10.966;2023-08-12T15:46:35;1.95;;;0.90;;
29500;SDS011;16450;50.288;10.966;2023-08-12T15:49:38;1.35;;;0.93;;
29500;SDS011;16450;50.288;10.966;2023-08-12T15:52:40;3.45;;;0.90;;
29500;SDS011;16450;50.288;10.966;2023-08-12T15:55:42;1.38;;;0.80;;
29500;SDS011;16450;50.288;10.966;2023-08-12T15:58:44;2.42;;;1.08;;
29500;SDS011;16450;50.288;10.966;2023-08-12T16:01:45;1.40;;;0.70;;
29500;SDS011;16450;50.288;10.966;2023-08-12T16:04:47;2.25;;;1.20;;
29500;SDS011;16450;50.288;10.966;2023-08-12T16:07:50;4.03;;;1.30;;
29500;SDS011;16450;50.288;10.966;2023-08-12T16:10:52;1.77;;;1.17;;
29500;SDS011;16450;50.288;10.966;2023-08-12T16:13:54;1.50;;;0.98;;
29500;SDS011;16450;50.288;10.966;2023-08-12T16:16:56;4.85;;;1.40;;
29500;SDS011;16450;50.288;10.966;2023-08-12T16:19:58;2.22;;;1.50;;
29500;SDS011;16450;50.288;10.966;2023-08-12T16:23:00;1.80;;;0.93;;
29500;SDS011;16450;50.288;10.966;2023-08-12T16:26:02;3.45;;;1.10;;
29500;SDS011;16450;50.288;10.966;2023-08-12T16:29:04;5.00;;;1.08;;
29500;SDS011;16450;50.288;10.966;2023-08-12T16:32:06;1.80;;;1.02;;
29500;SDS011;16450;50.288;10.966;2023-08-12T16:35:08;1.38;;;0.90;;
29500;SDS011;16450;50.288;10.966;2023-08-12T16:38:10;1.45;;;0.85;;
29500;SDS011;16450;50.288;10.966;2023-08-12T16:41:12;4.15;;;1.10;;
29500;SDS011;16450;50.288;10.966;2023-08-12T16:44:14;3.03;;;1.20;;
29500;SDS011;16450;50.288;10.966;2023-08-12T16:47:16;1.77;;;1.00;;
29500;SDS011;16450;50.288;10.966;2023-08-12T16:50:18;2.00;;;1.27;;
29500;SDS011;16450;50.288;10.966;2023-08-12T16:53:20;2.42;;;1.15;;
29500;SDS011;16450;50.288;10.966;2023-08-12T16:56:21;4.18;;;1.23;;
29500;SDS011;16450;50.288;10.966;2023-08-12T16:59:24;2.58;;;1.13;;
29500;SDS011;16450;50.288;10.966;2023-08-12T17:02:27;1.90;;;1.30;;
29500;SDS011;16450;50.288;10.966;2023-08-12T17:05:29;2.63;;;1.25;;
29500;SDS011;16450;50.288;10.966;2023-08-12T17:08:31;2.17;;;1.33;;
29500;SDS011;16450;50.288;10.966;2023-08-12T17:11:34;3.25;;;1.40;;
29500;SDS011;16450;50.288;10.966;2023-08-12T17:14:36;2.45;;;1.42;;
29500;SDS011;16450;50.288;10.966;2023-08-12T17:17:38;2.45;;;1.10;;
29500;SDS011;16450;50.288;10.966;2023-08-12T17:20:41;2.80;;;1.60;;
29500;SDS011;16450;50.288;10.966;2023-08-12T17:23:43;1.50;;;1.20;;
29500;SDS011;16450;50.288;10.966;2023-08-12T17:26:45;1.55;;;1.30;;
29500;SDS011;16450;50.288;10.966;2023-08-12T17:29:47;2.65;;;1.30;;
29500;SDS011;16450;50.288;10.966;2023-08-12T17:32:48;2.28;;;1.02;;
29500;SDS011;16450;50.288;10.966;2023-08-12T17:35:51;3.17;;;1.10;;
29500;SDS011;16450;50.288;10.966;2023-08-12T17:38:53;3.38;;;1.10;;
29500;SDS011;16450;50.288;10.966;2023-08-12T17:41:55;3.22;;;1.30;;
29500;SDS011;16450;50.288;10.966;2023-08-12T17:44:57;7.82;;;1.15;;
29500;SDS011;16450;50.288;10.966;2023-08-12T17:48:00;2.05;;;1.20;;
29500;SDS011;16450;50.288;10.966;2023-08-12T17:51:04;2.90;;;1.23;;
29500;SDS011;16450;50.288;10.966;2023-08-12T17:54:08;2.92;;;1.60;;
29500;SDS011;16450;50.288;10.966;2023-08-12T17:57:10;3.42;;;1.40;;
29500;SDS011;16450;50.288;10.966;2023-08-12T18:00:13;2.25;;;1.33;;
29500;SDS011;16450;50.288;10.966;2023-08-12T18:03:16;5.88;;;2.70;;
29500;SDS011;16450;50.288;10.966;2023-08-12T18:06:18;7.68;;;4.72;;